Time;durP1;ratioP1;P1;durP2;ratioP2;P2;SDS_P1;SDS_P2;PMS_P1;PMS_P2;Temp;Humidity;BMP_temperature;BMP_pressure;BME280_temperature;BME280_humidity;BME280_pressure;Samples;Min_cycle;Max_cycle;Signal;HPM_P1;HPM_P2
2021/11/01 00:01:50;;;;;;;24.55;3.42;;;10.50;99.90;;;;;;5055661;28;20036;-67
2021/11/01 00:04:16;;;;;;;23.92;3.92;;;10.50;99.90;;;;;;5051834;28;20378;-67
2021/11/01 00:06:41;;;;;;;25.90;2.97;;;10.50;99.90;;;;;;5052583;28;20040;-67
2021/11/01 00:09:07;;;;;;;22.88;3.80;;;10.50;99.90;;;;;;5053052;28;20511;-67
2021/11/01 00:11:32;;;;;;;32.63;4.28;;;10.50;99.90;;;;;;5054469;28;20378;-67
2021/11/01 00:13:58;;;;;;;28.50;4.55;;;10.40;99.90;;;;;;5054794;28;20036;-67
2021/11/01 00:16:24;;;;;;;16.05;3.20;;;10.50;99.90;;;;;;5054203;28;20231;-68
2021/11/01 00:18:50;;;;;;;19.60;3.42;;;10.40;99.90;;;;;;5083432;28;20063;-67
2021/11/01 00:21:21;;;;;;;19.75;3.30;;;10.40;99.90;;;;;;5054984;28;20037;-67
2021/11/01 00:23:47;;;;;;;25.52;3.88;;;10.40;99.90;;;;;;5051997;28;20546;-67
2021/11/01 00:26:14;;;;;;;18.58;2.97;;;10.40;99.90;;;;;;5055275;28;20064;-67
2021/11/01 00:28:40;;;;;;;24.67;3.60;;;10.40;99.90;;;;;;5053343;28;20607;-67
2021/11/01 00:31:06;;;;;;;26.63;3.45;;;10.40;99.90;;;;;;5053440;28;20049;-67
2021/11/01 00:33:32;;;;;;;20.77;3.33;;;10.40;99.90;;;;;;5056309;28;20045;-67
2021/11/01 00:35:58;;;;;;;22.30;3.38;;;10.30;99.90;;;;;;5057352;28;20043;-67
2021/11/01 00:38:23;;;;;;;23.08;3.78;;;10.30;99.90;;;;;;5053271;28;20426;-67
2021/11/01 00:40:49;;;;;;;21.65;3.08;;;10.30;99.90;;;;;;5054205;28;20041;-67
2021/11/01 00:43:15;;;;;;;18.23;3.38;;;10.30;99.90;;;;;;5056090;28;20043;-67
2021/11/01 00:45:41;;;;;;;25.50;3.78;;;10.30;99.90;;;;;;5054283;28;20045;-67
2021/11/01 00:48:07;;;;;;;22.95;3.45;;;10.30;99.90;;;;;;5054383;28;20040;-67
2021/11/01 00:50:34;;;;;;;21.38;3.03;;;10.20;99.90;;;;;;5054669;28;20115;-67
2021/11/01 00:53:00;;;;;;;18.42;3.20;;;10.30;99.90;;;;;;5054337;28;20052;-67
2021/11/01 00:55:37;;;;;;;25.95;3.92;;;10.20;99.90;;;;;;5057609;28;20459;-67
2021/11/01 00:58:04;;;;;;;18.30;2.90;;;10.20;99.90;;;;;;5059113;28;20456;-67
2021/11/01 01:00:30;;;;;;;15.93;3.20;;;10.20;99.90;;;;;;5055651;28;20048;-67
2021/11/01 01:02:57;;;;;;;19.65;3.33;;;10.20;99.90;;;;;;5092065;28;20040;-67
2021/11/01 01:05:23;;;;;;;18.63;2.63;;;10.20;99.90;;;;;;5057976;28;20044;-67
2021/11/01 01:07:49;;;;;;;19.92;3.17;;;10.20;99.90;;;;;;5059465;28;20039;-67
2021/11/01 01:10:15;;;;;;;27.75;3.20;;;10.20;99.90;;;;;;5057555;28;20041;-67
2021/11/01 01:12:42;;;;;;;23.30;3.17;;;10.20;99.90;;;;;;5059753;28;20032;-67
2021/11/01 01:15:17;;;;;;;26.92;3.10;;;10.20;99.90;;;;;;5056507;28;20060;-67
2021/11/01 01:17:44;;;;;;;20.23;2.72;;;10.20;99.90;;;;;;5056590;28;20044;-67
2021/11/01 01:20:13;;;;;;;17.27;3.20;;;10.10;99.90;;;;;;5057364;28;20754;-67
2021/11/01 01:22:39;;;;;;;22.33;4.60;;;10.10;99.90;;;;;;5056998;28;20651;-67
2021/11/01 01:25:14;;;;;;;20.60;2.95;;;10.10;99.90;;;;;;5055201;28;20123;-67
2021/11/01 01:27:41;;;;;;;28.02;3.22;;;10.10;99.90;;;;;;5085843;28;20059;-67
2021/11/01 01:30:09;;;;;;;17.17;2.90;;;10.10;99.90;;;;;;5057099;28;20616;-67
2021/11/01 01:32:35;;;;;;;19.15;3.55;;;10.10;99.90;;;;;;5055302;28;20136;-67
2021/11/01 01:35:01;;;;;;;16.67;2.80;;;10.10;99.90;;;;;;5053378;28;20041;-67
2021/11/01 01:37:26;;;;;;;19.50;2.40;;;10.10;99.90;;;;;;5057695;28;20040;-67
2021/11/01 01:39:52;;;;;;;19.70;3.42;;;10.00;99.90;;;;;;5056927;28;21644;-67
2021/11/01 01:42:17;;;;;;;20.73;3.63;;;10.00;99.90;;;;;;5056493;28;20055;-67
2021/11/01 01:44:43;;;;;;;25.00;3.20;;;10.00;99.90;;;;;;5056248;28;20048;-67
2021/11/01 01:47:10;;;;;;;18.08;2.63;;;10.00;99.90;;;;;;5058157;28;20052;-67
2021/11/01 01:49:36;;;;;;;19.90;3.08;;;10.00;99.90;;;;;;5055688;28;20049;-67
2021/11/01 01:52:03;;;;;;;12.75;2.10;;;10.00;99.90;;;;;;5056653;28;20072;-67
2021/11/01 01:54:29;;;;;;;21.58;2.83;;;10.00;99.90;;;;;;5056428;28;20478;-67
2021/11/01 01:56:54;;;;;;;17.90;2.90;;;9.90;99.90;;;;;;5054324;28;20052;-67
2021/11/01 01:59:21;;;;;;;17.90;2.08;;;9.90;99.90;;;;;;5057222;28;20122;-67
2021/11/01 02:01:49;;;;;;;15.32;2.17;;;9.90;99.90;;;;;;5057039;28;20450;-67
2021/11/01 02:04:23;;;;;;;12.82;2.03;;;9.90;99.90;;;;;;5088698;27;20040;-67
2021/11/01 02:07:13;;;;;;;14.85;2.42;;;10.00;99.90;;;;;;5056453;28;20114;-67
2021/11/01 02:10:12;;;;;;;14.20;2.95;;;10.00;99.90;;;;;;5058035;28;20063;-67
2021/11/01 02:12:54;;;;;;;16.85;2.53;;;9.90;99.90;;;;;;5056859;28;20085;-67
2021/11/01 02:15:25;;;;;;;16.40;2.15;;;9.90;99.90;;;;;;5057414;28;20044;-67
2021/11/01 02:17:53;;;;;;;19.77;2.38;;;9.90;99.90;;;;;;5055716;28;20040;-67
2021/11/01 02:20:26;;;;;;;14.88;2.35;;;9.90;99.90;;;;;;5058515;28;20040;-67
2021/11/01 02:23:07;;;;;;;18.38;2.97;;;9.90;99.90;;;;;;5057171;28;20036;-67
2021/11/01 02:25:44;;;;;;;28.42;3.22;;;9.80;99.90;;;;;;5057642;28;20040;-67
2021/11/01 02:28:23;;;;;;;17.67;2.45;;;9.80;99.90;;;;;;5056144;28;20102;-67
2021/11/01 02:30:50;;;;;;;17.08;3.03;;;9.80;99.90;;;;;;5090972;27;20478;-67
2021/11/01 02:33:17;;;;;;;12.23;3.33;;;9.80;99.90;;;;;;5061612;28;20041;-67
2021/11/01 02:35:44;;;;;;;12.63;2.67;;;9.80;99.90;;;;;;5063552;28;20094;-67
2021/11/01 02:38:21;;;;;;;15.82;1.90;;;9.80;99.90;;;;;;5060700;28;20060;-67
2021/11/01 02:40:47;;;;;;;17.15;3.20;;;9.80;99.90;;;;;;5063266;28;20039;-67
2021/11/01 02:43:14;;;;;;;27.90;4.55;;;9.80;99.90;;;;;;5066444;28;20032;-67
2021/11/01 02:45:40;;;;;;;18.23;2.58;;;9.80;99.90;;;;;;5064181;28;20041;-68
2021/11/01 02:48:07;;;;;;;16.58;2.53;;;9.80;99.90;;;;;;5093497;27;20502;-67
2021/11/01 02:50:33;;;;;;;15.93;2.53;;;9.80;99.90;;;;;;5060504;28;20472;-67
2021/11/01 02:52:59;;;;;;;21.23;2.75;;;9.80;99.90;;;;;;5065176;28;20036;-67
2021/11/01 02:55:25;;;;;;;26.20;3.40;;;9.80;99.90;;;;;;5062938;28;20082;-67
2021/11/01 02:57:51;;;;;;;16.58;3.45;;;9.80;99.90;;;;;;5061522;28;20036;-67
2021/11/01 03:00:20;;;;;;;14.98;2.85;;;9.80;99.90;;;;;;5059788;28;20033;-67
2021/11/01 03:02:47;;;;;;;18.77;2.35;;;9.70;99.90;;;;;;5062845;28;20083;-67
2021/11/01 03:05:16;;;;;;;18.10;2.45;;;9.70;99.90;;;;;;5065173;28;20935;-67
2021/11/01 03:07:42;;;;;;;20.27;3.00;;;9.70;99.90;;;;;;5062608;28;20701;-67
2021/11/01 03:10:09;;;;;;;18.50;2.63;;;9.70;99.90;;;;;;5062124;28;20099;-67
2021/11/01 03:12:40;;;;;;;19.10;3.08;;;9.60;99.90;;;;;;5061077;28;20041;-67
2021/11/01 03:15:08;;;;;;;19.45;2.22;;;9.60;99.90;;;;;;5064212;28;20044;-67
2021/11/01 03:17:43;;;;;;;16.05;2.63;;;9.60;99.90;;;;;;5049056;28;20059;-67
2021/11/01 03:20:15;;;;;;;14.52;2.05;;;9.60;99.90;;;;;;5062498;28;20037;-67
2021/11/01 03:22:51;;;;;;;14.52;2.13;;;9.60;99.90;;;;;;5062923;28;20034;-67
2021/11/01 03:25:34;;;;;;;18.92;2.70;;;9.60;99.90;;;;;;5061423;28;20052;-67
2021/11/01 03:28:01;;;;;;;15.73;2.97;;;9.60;99.90;;;;;;5060654;28;20094;-67
2021/11/01 03:30:29;;;;;;;16.50;2.45;;;9.60;99.90;;;;;;5065564;28;20391;-67
2021/11/01 03:32:57;;;;;;;14.75;2.45;;;9.50;99.90;;;;;;5062558;28;20407;-67
2021/11/01 03:35:25;;;;;;;14.20;2.47;;;9.50;99.90;;;;;;5059540;28;20041;-67
2021/11/01 03:37:53;;;;;;;12.30;2.78;;;9.50;99.90;;;;;;5060347;28;20036;-67
2021/11/01 03:40:20;;;;;;;19.92;2.08;;;9.40;99.90;;;;;;5059194;28;20074;-67
2021/11/01 03:42:53;;;;;;;14.20;2.35;;;9.40;99.90;;;;;;5059943;28;20041;-67
2021/11/01 03:45:21;;;;;;;15.50;2.20;;;9.40;99.90;;;;;;5060656;28;20115;-67
2021/11/01 03:47:49;;;;;;;12.50;2.22;;;9.40;99.90;;;;;;5059320;28;20506;-67
2021/11/01 03:50:28;;;;;;;13.25;2.28;;;9.40;99.90;;;;;;5061851;28;20071;-67
2021/11/01 03:52:54;;;;;;;15.45;2.70;;;9.40;99.90;;;;;;5097772;27;20411;-67
2021/11/01 03:55:23;;;;;;;10.60;2.22;;;9.40;99.90;;;;;;5061600;28;20048;-67
2021/11/01 03:57:49;;;;;;;12.25;2.03;;;9.30;99.90;;;;;;5061695;28;20033;-67
2021/11/01 04:00:15;;;;;;;12.15;1.95;;;9.30;99.90;;;;;;5060415;28;20032;-67
2021/11/01 04:02:45;;;;;;;16.92;2.08;;;9.30;99.90;;;;;;5060627;28;20458;-67
2021/11/01 04:05:11;;;;;;;16.00;2.50;;;9.30;99.90;;;;;;5059833;28;20540;-67
2021/11/01 04:07:37;;;;;;;17.58;1.95;;;9.30;99.90;;;;;;5060804;28;20036;-67
2021/11/01 04:10:03;;;;;;;16.58;2.25;;;9.30;99.90;;;;;;5060112;28;20066;-67
2021/11/01 04:12:29;;;;;;;12.30;1.95;;;9.30;99.90;;;;;;5062123;28;20559;-67
2021/11/01 04:15:02;;;;;;;13.75;2.28;;;9.30;99.90;;;;;;5061267;28;20118;-67
2021/11/01 04:17:45;;;;;;;10.63;1.92;;;9.20;99.90;;;;;;5059716;28;20044;-67
2021/11/01 04:22:48;;;;;;;12.95;2.28;;;9.30;99.90;;;;;;5062457;28;20457;-67
2021/11/01 04:25:14;;;;;;;11.30;1.88;;;9.30;99.90;;;;;;5061216;28;20051;-67
2021/11/01 04:27:39;;;;;;;14.55;1.75;;;9.30;99.90;;;;;;5060829;28;20040;-67
2021/11/01 04:30:08;;;;;;;17.50;2.53;;;9.30;99.90;;;;;;5060438;28;20033;-67
2021/11/01 04:32:37;;;;;;;12.45;2.10;;;9.20;99.90;;;;;;5062699;28;20051;-67
2021/11/01 04:35:12;;;;;;;11.70;1.80;;;9.30;99.90;;;;;;5061937;28;20040;-67
2021/11/01 04:37:40;;;;;;;12.73;2.08;;;9.20;99.90;;;;;;5065779;28;20042;-67
2021/11/01 04:42:59;;;;;;;12.20;2.83;;;9.20;99.90;;;;;;5092395;28;20131;-67
2021/11/01 04:53:41;;;;;;;8.75;1.42;;;9.20;99.90;;;;;;5093642;28;20049;-67
2021/11/01 04:56:08;;;;;;;13.32;1.52;;;9.10;99.90;;;;;;5058896;28;20056;-67
2021/11/01 04:58:34;;;;;;;13.25;1.77;;;9.20;99.90;;;;;;5063505;28;20068;-67
2021/11/01 05:00:59;;;;;;;13.85;2.13;;;9.20;99.90;;;;;;5061828;28;20128;-67
2021/11/01 05:03:34;;;;;;;9.27;1.33;;;9.10;99.90;;;;;;5061610;28;20143;-67
2021/11/01 05:06:00;;;;;;;9.93;1.77;;;9.10;99.90;;;;;;5063169;28;20036;-67
2021/11/01 05:08:32;;;;;;;9.73;1.17;;;9.10;99.90;;;;;;5060878;28;20048;-67
2021/11/01 05:11:00;;;;;;;11.20;1.73;;;9.10;99.90;;;;;;5059766;28;20052;-67
2021/11/01 05:13:30;;;;;;;10.55;1.55;;;9.10;99.90;;;;;;5061605;28;20045;-68
2021/11/01 05:16:15;;;;;;;9.80;1.55;;;9.10;99.90;;;;;;5058932;28;20059;-68
2021/11/01 05:21:40;;;;;;;10.15;1.70;;;9.10;99.90;;;;;;5056185;28;20033;-68
2021/11/01 05:24:11;;;;;;;14.88;2.35;;;9.10;99.90;;;;;;5053323;28;20547;-68
2021/11/01 05:29:06;;;;;;;11.60;1.63;;;9.00;99.90;;;;;;5054021;28;20394;-68
2021/11/01 05:31:42;;;;;;;12.88;2.28;;;9.10;99.90;;;;;;5056855;28;21646;-69
2021/11/01 05:34:10;;;;;;;15.85;2.22;;;9.00;99.90;;;;;;5054538;28;20048;-68
2021/11/01 05:36:36;;;;;;;8.15;1.27;;;9.00;99.90;;;;;;5053162;28;20135;-68
2021/11/01 05:39:03;;;;;;;13.05;1.70;;;9.00;99.90;;;;;;5052679;28;20471;-68
2021/11/01 05:41:29;;;;;;;10.43;2.53;;;9.00;99.90;;;;;;5070875;28;20052;-68
2021/11/01 05:43:55;;;;;;;13.65;2.83;;;9.00;99.90;;;;;;5060050;28;20418;-68
2021/11/01 05:46:21;;;;;;;10.82;1.60;;;9.00;99.90;;;;;;5056379;28;20041;-68
2021/11/01 05:48:54;;;;;;;11.25;1.67;;;9.00;99.90;;;;;;5055058;28;20048;-67
2021/11/01 05:51:21;;;;;;;10.65;2.28;;;8.90;99.90;;;;;;5055772;28;20059;-67
2021/11/01 05:53:52;;;;;;;10.55;1.23;;;8.90;99.90;;;;;;5057217;28;20079;-67
2021/11/01 05:56:35;;;;;;;8.80;1.67;;;8.90;99.90;;;;;;5056509;28;20126;-67
2021/11/01 06:07:19;;;;;;;16.10;2.78;;;8.80;99.90;;;;;;5061993;28;20041;-67
2021/11/01 06:10:09;;;;;;;11.23;1.90;;;8.90;99.90;;;;;;5060964;28;20040;-67
2021/11/01 06:15:18;;;;;;;14.93;1.92;;;8.90;99.90;;;;;;5090757;27;20049;-67
2021/11/01 06:17:45;;;;;;;12.50;1.80;;;8.90;99.90;;;;;;5060705;28;20111;-67
2021/11/01 06:20:12;;;;;;;14.15;2.00;;;8.90;99.90;;;;;;5058082;28;20052;-67
2021/11/01 06:22:39;;;;;;;18.77;3.70;;;8.90;99.90;;;;;;5057668;28;20106;-67
2021/11/01 06:25:06;;;;;;;9.18;1.65;;;8.90;99.90;;;;;;5057394;28;20041;-68
2021/11/01 06:27:34;;;;;;;12.77;2.35;;;8.90;99.90;;;;;;5058180;28;20049;-67
2021/11/01 06:30:15;;;;;;;11.15;1.42;;;8.90;99.90;;;;;;5056804;28;20564;-67
2021/11/01 06:32:58;;;;;;;13.50;2.28;;;8.90;99.90;;;;;;5056021;28;20110;-67
2021/11/01 06:41:30;;;;;;;14.23;2.08;;;8.80;99.90;;;;;;5058456;28;20048;-67
2021/11/01 07:17:04;;;;;;;11.85;1.95;;;9.00;99.90;;;;;;5054805;28;20045;-67
2021/11/01 08:23:48;;;;;;;10.50;2.15;;;9.90;99.90;;;;;;5054802;28;20044;-69
2021/11/01 08:34:47;;;;;;;9.85;2.28;;;10.00;99.90;;;;;;5056794;28;20133;-69
2021/11/01 08:40:07;;;;;;;8.15;1.90;;;10.10;99.90;;;;;;5054514;28;20048;-69
2021/11/01 08:42:54;;;;;;;6.93;1.83;;;10.10;99.90;;;;;;5054390;28;20471;-69
2021/11/01 08:45:35;;;;;;;13.15;2.45;;;10.10;99.90;;;;;;5050482;28;20029;-69
2021/11/01 08:50:38;;;;;;;13.05;2.17;;;10.10;99.90;;;;;;5054311;28;20118;-68
2021/11/01 09:03:57;;;;;;;13.20;2.05;;;10.40;99.90;;;;;;5081163;28;20049;-69
2021/11/01 09:12:10;;;;;;;10.50;2.00;;;10.60;99.90;;;;;;5053773;28;20052;-69
2021/11/01 09:19:54;;;;;;;10.88;2.28;;;10.80;99.90;;;;;;5056768;28;20044;-68
2021/11/01 09:25:10;;;;;;;14.95;2.28;;;10.80;99.90;;;;;;5057610;28;20132;-69
2021/11/01 09:27:38;;;;;;;11.13;1.83;;;10.80;99.90;;;;;;5088113;27;20045;-68
2021/11/01 09:38:19;;;;;;;10.45;2.22;;;10.90;99.90;;;;;;5058778;28;20445;-68
2021/11/01 09:41:02;;;;;;;12.27;1.63;;;11.00;99.90;;;;;;5090312;27;20109;-68
2021/11/01 09:43:28;;;;;;;6.68;1.77;;;11.10;99.90;;;;;;5057676;28;20044;-69
2021/11/01 09:46:03;;;;;;;13.68;2.05;;;11.10;99.90;;;;;;5056884;28;20045;-69
2021/11/01 09:48:29;;;;;;;7.83;1.40;;;11.20;99.90;;;;;;5074575;28;20036;-68
2021/11/01 09:50:56;;;;;;;6.35;1.45;;;11.20;99.90;;;;;;5055706;28;20318;-68
2021/11/01 09:53:27;;;;;;;9.27;1.75;;;11.20;99.90;;;;;;5067038;27;20489;-69
2021/11/01 10:01:25;;;;;;;7.60;1.38;;;11.30;99.90;;;;;;5090071;27;20053;-69
2021/11/01 10:03:52;;;;;;;8.50;1.98;;;11.30;99.90;;;;;;5057012;28;20051;-68
2021/11/01 10:06:23;;;;;;;7.15;1.50;;;11.30;99.90;;;;;;5056086;28;20037;-68
2021/11/01 10:09:00;;;;;;;9.02;1.90;;;11.40;99.90;;;;;;5056734;28;20048;-68
2021/11/01 10:11:33;;;;;;;6.15;1.60;;;11.40;99.90;;;;;;5057836;28;20486;-68
2021/11/01 10:14:02;;;;;;;11.25;1.63;;;11.40;99.90;;;;;;5056379;28;20503;-69
2021/11/01 10:19:34;;;;;;;8.38;1.58;;;11.60;99.90;;;;;;5053583;28;20135;-68
2021/11/01 10:22:10;;;;;;;9.40;1.85;;;11.70;99.90;;;;;;5056742;28;20495;-68
2021/11/01 10:24:41;;;;;;;;;;;11.70;99.90;;;;;;5055557;28;20479;-69
2021/11/01 10:27:09;;;;;;;10.80;2.63;;;11.70;99.90;;;;;;5086842;28;19956;-69
2021/11/01 10:29:58;;;;;;;8.88;1.85;;;11.70;99.90;;;;;;5054264;28;20494;-68
2021/11/01 10:32:48;;;;;;;6.28;1.17;;;11.70;99.90;;;;;;5054875;28;20120;-68
2021/11/01 10:35:17;;;;;;;6.07;1.08;;;11.60;99.90;;;;;;5057109;28;20097;-68
2021/11/01 10:41:22;;;;;;;8.07;1.48;;;11.60;99.90;;;;;;5056096;28;20029;-69
2021/11/01 11:14:42;;;;;;;6.85;0.80;;;13.50;99.90;;;;;;5054823;28;20057;-69
2021/11/01 11:25:17;;;;;;;4.75;0.88;;;13.80;99.90;;;;;;5055367;28;20791;-68
2021/11/01 11:31:07;;;;;;;4.65;0.88;;;13.90;99.90;;;;;;5053639;28;20097;-68
2021/11/01 11:39:39;;;;;;;7.18;1.10;;;13.60;99.90;;;;;;5036257;28;20040;-68
2021/11/01 11:42:33;;;;;;;8.13;1.27;;;13.70;99.90;;;;;;5089080;28;20072;-68
2021/11/01 11:47:43;;;;;;;5.03;1.00;;;13.90;99.90;;;;;;5086308;28;20397;-68
2021/11/01 11:50:13;;;;;;;14.77;1.42;;;13.90;99.90;;;;;;5053159;28;20131;-68
2021/11/01 11:52:39;;;;;;;7.05;1.38;;;13.80;99.90;;;;;;5052398;28;20033;-68
2021/11/01 11:55:21;;;;;;;11.95;1.85;;;13.70;99.90;;;;;;5054160;28;20579;-69
2021/11/01 11:58:09;;;;;;;5.40;0.98;;;13.50;99.90;;;;;;5054313;28;20037;-68
2021/11/01 12:00:36;;;;;;;11.18;1.10;;;13.50;99.90;;;;;;5061439;28;20052;-69
2021/11/01 12:03:11;;;;;;;10.27;1.25;;;13.40;99.90;;;;;;5062479;28;20140;-68
2021/11/01 12:05:50;;;;;;;7.83;1.03;;;13.40;99.90;;;;;;5060878;28;20032;-68
2021/11/01 12:08:29;;;;;;;9.93;1.60;;;13.40;99.90;;;;;;5063338;28;20636;-68
2021/11/01 12:19:11;;;;;;;6.10;0.75;;;13.50;99.90;;;;;;5059447;28;20056;-69
2021/11/01 12:21:41;;;;;;;12.00;1.75;;;13.30;99.90;;;;;;5060381;28;21845;-69
2021/11/01 12:24:12;;;;;;;4.40;0.88;;;13.40;99.90;;;;;;5061260;28;20036;-69
2021/11/01 12:26:43;;;;;;;6.60;1.20;;;13.40;99.90;;;;;;5064200;28;21478;-68
2021/11/01 12:29:11;;;;;;;9.15;0.70;;;13.40;99.90;;;;;;5057797;28;20104;-68
2021/11/01 12:31:38;;;;;;;5.82;0.93;;;13.40;99.90;;;;;;5057997;28;20044;-68
2021/11/01 12:34:17;;;;;;;5.68;1.10;;;13.30;99.90;;;;;;5093888;28;20040;-69
2021/11/01 12:37:02;;;;;;;10.23;1.10;;;13.20;99.90;;;;;;5063832;28;20055;-68
2021/11/01 12:39:35;;;;;;;7.30;1.33;;;13.00;99.90;;;;;;5056440;28;20044;-68
2021/11/01 12:58:36;;;;;;;5.18;0.80;;;13.20;99.90;;;;;;5094081;27;20491;-68
2021/11/01 13:01:11;;;;;;;3.33;0.63;;;13.20;99.90;;;;;;5059195;28;20044;-68
2021/11/01 13:03:38;;;;;;;6.07;0.80;;;13.20;99.90;;;;;;5062975;28;20029;-68
2021/11/01 13:06:17;;;;;;;6.05;0.88;;;13.10;99.90;;;;;;5062353;28;20163;-68
2021/11/01 13:08:51;;;;;;;6.60;0.73;;;13.10;99.90;;;;;;5065007;28;20041;-68
2021/11/01 13:11:42;;;;;;;5.97;1.05;;;13.10;99.90;;;;;;5059872;28;20040;-68
2021/11/01 13:19:23;;;;;;;11.77;0.98;;;13.20;99.90;;;;;;5095719;27;20052;-68
2021/11/01 13:21:56;;;;;;;14.70;1.67;;;13.20;99.90;;;;;;5061320;28;20055;-68
2021/11/01 13:24:33;;;;;;;2.72;0.65;;;13.20;99.90;;;;;;5064675;28;20856;-68
2021/11/01 13:37:37;;;;;;;5.80;0.60;;;13.10;99.90;;;;;;5095621;28;20036;-69
2021/11/01 13:40:15;;;;;;;8.23;0.88;;;13.10;99.90;;;;;;5061673;28;20074;-68
2021/11/01 13:42:53;;;;;;;3.75;0.70;;;13.10;99.90;;;;;;5068015;28;20049;-68
2021/11/01 13:45:20;;;;;;;19.67;0.93;;;13.00;99.90;;;;;;5064063;28;20520;-68
2021/11/01 13:47:53;;;;;;;6.57;0.70;;;13.00;99.90;;;;;;5063859;28;20540;-68
2021/11/01 13:50:21;;;;;;;4.88;0.50;;;12.90;99.90;;;;;;5061574;28;20056;-68
2021/11/01 13:53:06;;;;;;;4.85;1.00;;;12.80;99.90;;;;;;5067032;28;20135;-68
2021/11/01 14:01:08;;;;;;;6.53;0.82;;;12.80;99.90;;;;;;5090341;27;20132;-68
2021/11/01 14:12:12;;;;;;;7.13;0.60;;;12.70;99.90;;;;;;5063173;28;20355;-74
2021/11/01 14:18:01;;;;;;;8.25;1.10;;;12.70;99.90;;;;;;5055599;28;20064;-69
2021/11/01 14:28:31;;;;;;;7.03;0.88;;;12.50;99.90;;;;;;5065102;28;20406;-68
2021/11/01 14:33:48;;;;;;;5.53;0.70;;;12.40;99.90;;;;;;5063288;28;20048;-68
2021/11/01 15:14:39;;;;;;;6.80;0.90;;;11.80;99.90;;;;;;5058437;28;20049;-68
2021/11/01 15:17:12;;;;;;;8.48;1.00;;;11.70;99.90;;;;;;5050683;28;20418;-69
2021/11/01 15:19:55;;;;;;;3.60;0.70;;;11.70;99.90;;;;;;5082689;27;20045;-69
2021/11/01 15:36:01;;;;;;;5.40;0.85;;;11.60;99.90;;;;;;5056122;28;20056;-69
2021/11/01 16:19:40;;;;;;;7.05;1.20;;;10.80;99.90;;;;;;5053301;28;20051;-69
2021/11/01 16:22:11;;;;;;;7.40;1.00;;;10.70;99.90;;;;;;5052535;28;20486;-69
2021/11/01 16:24:38;;;;;;;2.60;0.70;;;10.70;99.90;;;;;;5056054;28;20043;-68
2021/11/01 16:27:06;;;;;;;8.00;0.70;;;10.70;99.90;;;;;;5054552;28;20394;-68
2021/11/01 16:29:47;;;;;;;17.10;1.50;;;10.60;99.90;;;;;;5051666;28;20057;-68
2021/11/01 16:32:36;;;;;;;4.45;0.93;;;10.60;99.90;;;;;;5056067;28;20079;-68
2021/11/01 16:35:07;;;;;;;7.70;1.25;;;10.60;99.90;;;;;;5051760;28;20498;-68
2021/11/01 16:40:12;;;;;;;10.30;1.15;;;10.50;99.90;;;;;;5083814;28;20048;-68
2021/11/01 16:42:41;;;;;;;8.23;1.20;;;10.50;99.90;;;;;;5052497;28;20124;-68
2021/11/01 16:45:16;;;;;;;6.28;0.90;;;10.40;99.90;;;;;;5053158;28;20044;-68
2021/11/01 16:47:44;;;;;;;8.93;1.15;;;10.50;99.90;;;;;;5054400;28;20490;-68
2021/11/01 16:50:12;;;;;;;6.22;0.95;;;10.40;99.90;;;;;;5051769;28;20517;-68
2021/11/01 16:52:40;;;;;;;5.75;1.05;;;10.30;99.90;;;;;;5052544;28;20046;-68
2021/11/01 16:55:17;;;;;;;5.13;1.00;;;10.30;99.90;;;;;;5036756;28;20076;-68
2021/11/01 16:57:48;;;;;;;12.80;1.42;;;10.30;99.90;;;;;;5053086;28;20703;-69
2021/11/01 17:00:28;;;;;;;10.98;1.10;;;10.30;99.90;;;;;;5051554;28;20044;-68
2021/11/01 17:03:46;;;;;;;8.43;1.17;;;10.30;99.90;;;;;;5050482;28;20170;-68
2021/11/01 17:06:04;;;;;;;6.22;0.77;;;10.30;99.90;;;;;;5044454;28;20056;-68
2021/11/01 17:25:09;;;;;;;9.43;1.15;;;10.00;99.90;;;;;;5091722;28;20102;-68
2021/11/01 17:35:41;;;;;;;9.52;1.42;;;9.90;99.90;;;;;;5056961;28;20465;-68
2021/11/01 17:38:43;;;;;;;9.75;1.13;;;9.90;99.90;;;;;;5060855;28;20041;-69
2021/11/01 18:40:36;;;;;;;7.40;1.27;;;9.90;99.90;;;;;;5037194;28;20532;-68
2021/11/01 18:53:15;;;;;;;7.70;1.92;;;9.70;99.90;;;;;;5060597;28;20052;-68
2021/11/01 18:55:50;;;;;;;6.63;1.30;;;9.70;99.90;;;;;;5060898;28;20509;-68
2021/11/01 18:58:21;;;;;;;8.52;0.82;;;9.70;99.90;;;;;;5061280;28;20472;-68
2021/11/01 19:00:48;;;;;;;7.35;1.15;;;9.60;99.90;;;;;;5060078;28;20041;-69
2021/11/01 19:03:16;;;;;;;5.50;1.00;;;9.60;99.90;;;;;;5062272;28;20051;-68
2021/11/01 20:03:53;;;;;;;3.30;0.50;;;9.40;99.90;;;;;;5092795;28;20052;-69
2021/11/01 21:26:28;;;;;;;1.80;0.70;;;8.40;99.90;;;;;;5052563;28;21347;-69
2021/11/01 21:28:54;;;;;;;3.47;0.90;;;8.30;99.90;;;;;;5091464;28;20159;-69
2021/11/01 21:31:21;;;;;;;1.85;0.80;;;8.30;99.90;;;;;;5059402;28;20127;-69
2021/11/01 21:33:51;;;;;;;5.72;1.42;;;8.30;99.90;;;;;;5060796;28;20102;-69
2021/11/01 21:36:24;;;;;;;3.97;1.67;;;8.30;99.90;;;;;;5065528;28;20402;-69
2021/11/01 21:38:51;;;;;;;4.13;1.13;;;8.30;99.90;;;;;;5061997;28;20043;-69
2021/11/01 21:41:17;;;;;;;2.53;1.10;;;8.20;99.90;;;;;;5060419;28;20032;-69
2021/11/01 21:43:43;;;;;;;1.60;1.08;;;8.20;99.90;;;;;;5062439;28;20098;-69
2021/11/01 21:46:08;;;;;;;2.97;1.10;;;8.20;99.90;;;;;;5059259;28;20996;-69
2021/11/01 21:48:34;;;;;;;3.33;1.30;;;8.20;99.90;;;;;;5090835;28;20050;-69
2021/11/01 21:50:59;;;;;;;3.25;1.42;;;8.10;99.90;;;;;;5062453;28;20044;-69
2021/11/01 21:53:26;;;;;;;2.97;1.33;;;8.20;99.90;;;;;;5062925;28;20090;-69
2021/11/01 21:55:53;;;;;;;4.35;1.67;;;8.10;99.90;;;;;;5063187;28;20102;-69
2021/11/01 22:17:40;;;;;;;3.58;1.55;;;8.00;99.90;;;;;;5066616;28;20068;-69
2021/11/01 22:20:26;;;;;;;3.75;1.55;;;8.00;99.90;;;;;;5060751;28;20045;-69
2021/11/01 22:22:57;;;;;;;4.63;1.60;;;8.00;99.90;;;;;;5062734;28;20052;-69
2021/11/01 22:25:38;;;;;;;3.00;1.60;;;7.90;99.90;;;;;;5066685;28;20395;-69
2021/11/01 22:33:40;;;;;;;6.65;2.40;;;7.90;99.90;;;;;;5065497;28;20083;-69
2021/11/01 22:44:20;;;;;;;3.25;1.92;;;7.80;99.90;;;;;;5062669;28;20135;-69
2021/11/01 22:47:20;;;;;;;3.05;1.90;;;7.80;99.90;;;;;;5064370;28;20044;-70
2021/11/01 22:57:40;;;;;;;3.45;2.05;;;7.80;99.90;;;;;;5062193;28;20490;-70
2021/11/01 23:00:17;;;;;;;7.07;2.47;;;7.70;99.90;;;;;;5062107;28;20032;-70
2021/11/01 23:02:45;;;;;;;5.22;2.35;;;7.70;99.90;;;;;;5059884;28;20040;-70
2021/11/01 23:32:33;;;;;;;5.50;2.55;;;7.70;99.90;;;;;;5093384;27;20044;-70
2021/11/01 23:34:59;;;;;;;7.45;2.20;;;7.60;99.90;;;;;;5063594;28;20492;-69
2021/11/01 23:37:24;;;;;;;3.67;2.42;;;7.60;99.90;;;;;;5061691;28;20042;-70
2021/11/01 23:39:51;;;;;;;8.23;2.58;;;7.50;99.90;;;;;;5064893;28;20122;-70
2021/11/01 23:42:17;;;;;;;2.90;2.58;;;7.50;99.90;;;;;;5060864;28;20047;-70
2021/11/01 23:44:42;;;;;;;4.05;2.50;;;7.50;99.90;;;;;;5060008;28;20040;-70
2021/11/01 23:47:08;;;;;;;6.55;2.35;;;7.40;99.90;;;;;;5051624;28;20541;-70
2021/11/01 23:49:33;;;;;;;3.90;3.10;;;7.50;99.90;;;;;;5056080;28;20500;-70
2021/11/01 23:52:03;;;;;;;4.20;2.88;;;7.40;99.90;;;;;;5052273;28;20045;-70
2021/11/01 23:54:42;;;;;;;5.57;2.95;;;7.40;99.90;;;;;;5054169;28;20060;-70
2021/11/01 23:57:08;;;;;;;7.72;3.25;;;7.40;99.90;;;;;;5055423;28;20485;-70
2021/11/01 23:59:34;;;;;;;5.13;3.25;;;7.40;99.90;;;;;;5054980;28;20036;-70
